Time;durP1;ratioP1;P1;durP2;ratioP2;P2;SDS_P1;SDS_P2;PMS_P1;PMS_P2;Temp;Humidity;BMP_temperature;BMP_pressure;BME280_temperature;BME280_humidity;BME280_pressure;Samples;Min_cycle;Max_cycle;Signal;HPM_P1;HPM_P2
2024/01/04 00:00:09;;;;;;;35.80;16.65;;;;;;;-0.32;99.26;98247.87;1657212;86;21039;-72
2024/01/04 00:02:37;;;;;;;37.03;16.30;;;;;;;-0.31;99.32;98249.54;1657148;86;21075;-73
2024/01/04 00:05:06;;;;;;;32.75;16.77;;;;;;;-0.27;99.35;98259.43;1657199;86;21099;-72
2024/01/04 00:07:35;;;;;;;36.10;16.25;;;;;;;-0.26;99.32;98247.65;1657187;86;21483;-73
2024/01/04 00:10:05;;;;;;;35.00;16.25;;;;;;;-0.26;99.32;98253.87;1657330;86;21474;-73
2024/01/04 00:12:33;;;;;;;33.92;16.65;;;;;;;-0.24;99.36;98245.61;1657220;86;21100;-72
2024/01/04 00:15:03;;;;;;;40.38;16.30;;;;;;;-0.22;99.46;98245.76;1657150;86;21035;-72
2024/01/04 00:17:32;;;;;;;33.75;16.23;;;;;;;-0.19;99.57;98241.36;1657173;86;21063;-72
2024/01/04 00:20:01;;;;;;;37.33;17.23;;;;;;;-0.17;99.57;98243.36;1657258;86;21035;-72
2024/01/04 00:22:30;;;;;;;42.53;18.40;;;;;;;-0.14;99.59;98240.81;1657265;86;21118;-73
2024/01/04 00:24:58;;;;;;;38.50;18.30;;;;;;;-0.14;99.68;98230.88;1657236;86;21122;-74
2024/01/04 00:27:26;;;;;;;40.98;18.55;;;;;;;-0.13;99.70;98227.68;1657204;86;21116;-73
2024/01/04 00:29:55;;;;;;;39.73;18.27;;;;;;;-0.15;99.73;98222.99;1657226;86;21059;-74
2024/01/04 00:32:23;;;;;;;41.02;18.65;;;;;;;-0.14;99.80;98223.31;1634771;86;21490;-73
2024/01/04 00:34:52;;;;;;;44.75;18.95;;;;;;;-0.13;99.83;98216.91;1645479;86;21161;-73
2024/01/04 00:37:20;;;;;;;47.58;20.52;;;;;;;-0.14;99.80;98226.01;1671057;86;21057;-73
2024/01/04 00:39:51;;;;;;;48.85;20.00;;;;;;;-0.11;99.77;98224.30;1653751;86;21091;-73
2024/01/04 00:42:19;;;;;;;50.00;19.32;;;;;;;-0.13;99.71;98229.03;1670977;86;21073;-75
2024/01/04 00:44:47;;;;;;;40.48;18.80;;;;;;;-0.09;99.77;98230.33;1664488;86;21512;-74
2024/01/04 00:47:16;;;;;;;44.18;19.17;;;;;;;-0.12;99.74;98219.42;1639681;86;21432;-76
2024/01/04 00:49:44;;;;;;;44.25;19.95;;;;;;;-0.10;99.82;98221.42;1664396;85;21022;-73
2024/01/04 00:52:12;;;;;;;43.98;19.73;;;;;;;-0.07;99.90;98222.91;1673517;86;21042;-74
2024/01/04 00:54:41;;;;;;;43.13;19.00;;;;;;;-0.06;99.89;98223.23;1644111;85;21057;-73
2024/01/04 00:57:09;;;;;;;41.65;18.98;;;;;;;-0.06;99.87;98227.27;1653709;86;21206;-72
2024/01/04 00:59:37;;;;;;;39.70;17.52;;;;;;;-0.05;99.94;98231.63;1653588;86;21823;-73
2024/01/04 01:02:06;;;;;;;38.28;17.40;;;;;;;-0.04;99.93;98231.96;1653598;86;21675;-72
2024/01/04 01:04:35;;;;;;;43.52;18.80;;;;;;;-0.04;99.93;98234.66;1670920;86;21042;-73
2024/01/04 01:07:04;;;;;;;39.73;18.02;;;;;;;-0.03;99.96;98238.51;1673484;84;21187;-73
2024/01/04 01:09:33;;;;;;;39.78;17.85;;;;;;;-0.02;99.92;98242.03;1671005;85;21307;-72
2024/01/04 01:12:01;;;;;;;40.95;18.75;;;;;;;-0.01;99.96;98232.94;1670857;86;21073;-74
2024/01/04 01:14:29;;;;;;;39.80;18.32;;;;;;;0.01;99.98;98226.89;1673587;84;21042;-74
2024/01/04 01:16:58;;;;;;;39.95;18.12;;;;;;;0.04;99.95;98228.38;1670857;86;21066;-72
2024/01/04 01:19:26;;;;;;;41.83;18.50;;;;;;;0.04;99.95;98225.18;1653598;86;21157;-73
2024/01/04 01:21:55;;;;;;;36.23;17.57;;;;;;;0.06;99.95;98227.18;1670727;86;21074;-73
2024/01/04 01:24:24;;;;;;;42.17;17.92;;;;;;;0.09;99.97;98226.81;1670836;85;21070;-73
2024/01/04 01:26:52;;;;;;;35.68;17.55;;;;;;;0.10;99.99;98223.61;1673743;84;21084;-73
2024/01/04 01:29:21;;;;;;;45.55;18.92;;;;;;;0.10;99.98;98221.75;1671043;85;21066;-73
2024/01/04 01:31:49;;;;;;;40.43;18.73;;;;;;;0.12;100.00;98225.61;1653699;86;21024;-74
2024/01/04 01:34:18;;;;;;;42.35;19.60;;;;;;;0.13;99.99;98221.89;1665347;85;21546;-74
2024/01/04 01:36:47;;;;;;;43.20;19.73;;;;;;;0.14;100.00;98227.09;1653768;86;21066;-74
2024/01/04 01:39:15;;;;;;;43.38;19.80;;;;;;;0.16;100.00;98228.25;1653655;86;21128;-75
2024/01/04 01:41:44;;;;;;;44.08;19.87;;;;;;;0.15;100.00;98215.30;1644822;87;21090;-74
2024/01/04 01:44:12;;;;;;;42.35;18.73;;;;;;;0.16;100.00;98225.05;1610445;89;21114;-74
2024/01/04 01:46:41;;;;;;;41.48;18.85;;;;;;;0.18;100.00;98227.56;1674956;86;21050;-74
2024/01/04 01:49:09;;;;;;;39.78;18.25;;;;;;;0.20;100.00;98222.31;1674905;84;21078;-75
2024/01/04 01:51:39;;;;;;;38.30;18.62;;;;;;;0.22;100.00;98231.05;1674917;84;21014;-75
2024/01/04 01:54:08;;;;;;;38.92;17.55;;;;;;;0.22;100.00;98225.66;1674956;86;21552;-74
2024/01/04 01:56:36;;;;;;;40.83;18.23;;;;;;;0.24;100.00;98226.30;1674955;86;21524;-74
2024/01/04 01:59:05;;;;;;;41.08;18.98;;;;;;;0.25;100.00;98225.80;1675040;86;21042;-74
2024/01/04 02:01:35;;;;;;;41.60;19.82;;;;;;;0.26;100.00;98227.47;1674675;85;21078;-74
2024/01/04 02:04:04;;;;;;;48.50;21.10;;;;;;;0.26;100.00;98230.99;1674934;86;21093;-73
2024/01/04 02:06:33;;;;;;;45.48;21.15;;;;;;;0.25;100.00;98225.28;1675063;86;21081;-75
2024/01/04 02:09:01;;;;;;;43.65;20.08;;;;;;;0.26;100.00;98235.03;1675093;86;21069;-74
2024/01/04 02:11:30;;;;;;;48.55;20.12;;;;;;;0.29;100.00;98237.87;1675163;86;21109;-74
2024/01/04 02:13:59;;;;;;;43.05;21.12;;;;;;;0.31;100.00;98238.00;1674943;84;21097;-75
2024/01/04 02:16:28;;;;;;;52.35;24.95;;;;;;;0.33;100.00;98241.86;1675067;86;21105;-74
2024/01/04 02:18:56;;;;;;;49.75;24.02;;;;;;;0.33;100.00;98244.55;1675064;86;21114;-75
2024/01/04 02:21:25;;;;;;;50.08;22.58;;;;;;;0.33;100.00;98248.59;1675088;85;21085;-74
2024/01/04 02:23:53;;;;;;;46.60;21.37;;;;;;;0.34;100.00;98242.70;1675021;84;21034;-75
2024/01/04 02:26:21;;;;;;;54.75;22.82;;;;;;;0.35;100.00;98239.81;1675052;86;21481;-77
2024/01/04 02:28:50;;;;;;;51.73;22.35;;;;;;;0.35;100.00;98245.71;1675211;84;21482;-75
2024/01/04 02:31:18;;;;;;;56.55;23.38;;;;;;;0.36;100.00;98249.56;1675105;84;21066;-76
2024/01/04 02:33:46;;;;;;;52.45;24.00;;;;;;;0.40;100.00;98251.38;1675665;82;21014;-75
2024/01/04 02:36:15;;;;;;;52.15;23.90;;;;;;;0.43;100.00;98240.23;1699995;83;21506;-77
2024/01/04 02:38:44;;;;;;;52.27;23.07;;;;;;;0.44;100.00;98251.33;1700161;84;21026;-75
2024/01/04 02:41:12;;;;;;;48.00;20.75;;;;;;;0.44;100.00;98261.59;1699928;83;21034;-77
2024/01/04 02:43:41;;;;;;;42.13;19.90;;;;;;;0.44;100.00;98254.03;1700061;84;21059;-78
2024/01/04 02:46:09;;;;;;;47.50;21.75;;;;;;;0.42;100.00;98249.34;1699867;84;21065;-77
2024/01/04 02:48:38;;;;;;;50.80;23.32;;;;;;;0.42;100.00;98253.38;1699868;84;21368;-77
2024/01/04 02:51:06;;;;;;;46.88;22.00;;;;;;;0.44;100.00;98258.06;1699863;83;21038;-77
2024/01/04 02:53:36;;;;;;;46.95;21.90;;;;;;;0.46;100.00;98257.37;1699811;84;21661;-77
2024/01/04 02:56:05;;;;;;;47.48;22.48;;;;;;;0.47;100.00;98249.61;1699686;84;21018;-77
2024/01/04 02:58:34;;;;;;;48.30;23.30;;;;;;;0.48;100.00;98252.63;1699910;83;21029;-76
2024/01/04 03:01:03;;;;;;;56.80;24.87;;;;;;;0.49;100.00;98247.56;1703623;83;21035;-77
2024/01/04 03:03:32;;;;;;;50.43;24.47;;;;;;;0.46;100.00;98244.73;1699846;84;21498;-76
2024/01/04 03:06:01;;;;;;;51.92;23.77;;;;;;;0.46;100.00;98249.29;1699737;83;21062;-77
2024/01/04 03:08:29;;;;;;;48.83;22.82;;;;;;;0.50;100.00;98249.24;1699718;83;21489;-77
2024/01/04 03:10:58;;;;;;;45.78;23.60;;;;;;;0.51;100.00;98249.05;1699854;83;21320;-75
2024/01/04 03:13:26;;;;;;;53.95;24.05;;;;;;;0.54;100.00;98255.41;1699778;83;21049;-76
2024/01/04 03:15:54;;;;;;;45.63;23.07;;;;;;;0.54;100.00;98256.77;1699599;83;21034;-78
2024/01/04 03:18:23;;;;;;;50.45;24.65;;;;;;;0.54;100.00;98258.63;1699776;84;21050;-77
2024/01/04 03:20:52;;;;;;;45.28;22.17;;;;;;;0.56;100.00;98256.58;1699712;83;21078;-77
2024/01/04 03:23:20;;;;;;;51.02;23.57;;;;;;;0.56;100.00;98261.97;1699856;84;21027;-77
2024/01/04 03:25:49;;;;;;;53.20;25.70;;;;;;;0.57;100.00;98269.02;1699745;84;21066;-78
2024/01/04 03:28:17;;;;;;;49.63;24.82;;;;;;;0.57;100.00;98265.81;1699750;83;21061;-79
2024/01/04 03:30:45;;;;;;;53.23;25.72;;;;;;;0.58;100.00;98273.39;1699822;83;21035;-76
2024/01/04 03:33:14;;;;;;;51.53;23.87;;;;;;;0.60;100.00;98272.18;1699831;84;21050;-78
2024/01/04 03:35:42;;;;;;;57.45;27.40;;;;;;;0.61;100.00;98271.67;1703056;83;21081;-79
2024/01/04 03:38:11;;;;;;;56.58;26.15;;;;;;;0.60;100.00;98272.18;1671212;86;21058;-78
2024/01/04 03:40:39;;;;;;;60.17;25.77;;;;;;;0.63;100.00;98270.97;1671091;86;21034;-78
2024/01/04 03:43:08;;;;;;;54.30;25.55;;;;;;;0.63;100.00;98275.02;1671172;85;21122;-77
2024/01/04 03:45:36;;;;;;;54.42;25.92;;;;;;;0.66;100.00;98272.48;1670936;86;21027;-79
2024/01/04 03:48:06;;;;;;;54.90;26.97;;;;;;;0.67;100.00;98269.61;1670847;86;21058;-77
2024/01/04 03:50:34;;;;;;;57.58;26.52;;;;;;;0.70;100.00;98269.75;1671045;86;21046;-78
2024/01/04 03:53:03;;;;;;;61.90;26.33;;;;;;;0.70;100.00;98280.01;1670913;85;21050;-76
2024/01/04 03:55:31;;;;;;;52.70;25.85;;;;;;;0.69;100.00;98282.38;1704809;84;21105;-79
2024/01/04 03:57:59;;;;;;;53.02;25.02;;;;;;;0.71;100.00;98272.25;1670829;85;21046;-78
2024/01/04 04:00:28;;;;;;;55.52;25.82;;;;;;;0.72;100.00;98276.62;1670968;85;21106;-77
2024/01/04 04:02:58;;;;;;;56.05;26.55;;;;;;;0.74;100.00;98273.22;1704848;84;21062;-78
2024/01/04 04:05:27;;;;;;;57.33;26.35;;;;;;;0.77;100.00;98278.23;1704739;83;21057;-77
2024/01/04 04:07:55;;;;;;;73.42;35.28;;;;;;;0.80;100.00;98281.07;1704657;84;21074;-77
2024/01/04 04:10:24;;;;;;;68.28;31.90;;;;;;;0.81;100.00;98280.88;1670861;85;21046;-77
2024/01/04 04:12:52;;;;;;;69.35;30.40;;;;;;;0.83;100.00;98281.53;1704681;84;21085;-78
2024/01/04 04:15:21;;;;;;;71.42;33.50;;;;;;;0.84;100.00;98280.50;1704978;84;21065;-77
2024/01/04 04:17:49;;;;;;;65.03;30.65;;;;;;;0.85;100.00;98283.52;1705043;84;21045;-77
2024/01/04 04:20:18;;;;;;;58.87;26.62;;;;;;;0.86;100.00;98285.20;1671033;85;21089;-77
2024/01/04 04:22:46;;;;;;;51.35;24.67;;;;;;;0.89;100.00;98289.38;1704836;84;21073;-75
2024/01/04 04:25:15;;;;;;;56.30;24.77;;;;;;;0.88;100.00;98287.19;1671079;85;21089;-77
2024/01/04 04:27:43;;;;;;;58.02;25.77;;;;;;;0.90;100.00;98283.80;1670995;86;21189;-79
2024/01/04 04:30:12;;;;;;;52.35;24.45;;;;;;;0.91;100.00;98281.42;1670895;85;21537;-79
2024/01/04 04:32:41;;;;;;;57.20;25.10;;;;;;;0.91;100.00;98285.47;1704774;84;21478;-76
2024/01/04 04:35:09;;;;;;;52.65;25.60;;;;;;;0.91;100.00;98284.13;1671704;85;21102;-79
2024/01/04 04:37:38;;;;;;;54.60;25.77;;;;;;;0.94;100.00;98285.61;1673485;85;21099;-78
2024/01/04 04:40:08;;;;;;;55.05;26.00;;;;;;;0.94;100.00;98285.61;1646224;86;21141;-79
2024/01/04 04:42:38;;;;;;;59.67;27.07;;;;;;;0.94;100.00;98291.83;1646251;86;21118;-77
2024/01/04 04:45:07;;;;;;;52.88;24.57;;;;;;;0.95;100.00;98288.11;1646413;86;21244;-78
2024/01/04 04:47:36;;;;;;;54.35;25.40;;;;;;;0.97;100.00;98288.44;1646391;87;21126;-77
2024/01/04 04:50:07;;;;;;;55.78;23.98;;;;;;;1.00;100.00;98286.71;1646400;86;21129;-77
2024/01/04 04:52:35;;;;;;;55.45;25.72;;;;;;;0.99;100.00;98291.27;1646269;87;21556;-76
2024/01/04 04:55:05;;;;;;;52.25;23.92;;;;;;;1.00;100.00;98292.10;1646319;87;21102;-76
2024/01/04 04:57:35;;;;;;;54.70;25.30;;;;;;;1.00;100.00;98290.24;1615745;88;21082;-77
2024/01/04 05:00:05;;;;;;;53.13;25.85;;;;;;;1.02;100.00;98307.58;1673442;85;21054;-78
2024/01/04 05:02:34;;;;;;;50.05;24.27;;;;;;;1.01;100.00;98309.95;1673522;86;21035;-77
2024/01/04 05:05:02;;;;;;;53.42;24.45;;;;;;;1.03;100.00;98310.09;1673495;85;21532;-78
2024/01/04 05:07:31;;;;;;;54.70;24.67;;;;;;;1.05;100.00;98309.90;1646214;87;21543;-77
2024/01/04 05:09:59;;;;;;;54.03;24.05;;;;;;;1.07;100.00;98317.28;1646448;87;21102;-77
2024/01/04 05:12:31;;;;;;;52.95;23.90;;;;;;;1.07;100.00;98320.82;1646239;87;21122;-77
2024/01/04 05:14:59;;;;;;;47.30;21.60;;;;;;;1.06;100.00;98321.84;1646252;87;21081;-79
2024/01/04 05:17:27;;;;;;;54.08;21.60;;;;;;;1.07;100.00;98328.08;1646263;86;21129;-78
2024/01/04 05:19:56;;;;;;;41.20;20.08;;;;;;;1.08;100.00;98327.05;1646217;87;21536;-76
2024/01/04 05:22:25;;;;;;;43.45;20.62;;;;;;;1.08;100.00;98332.44;1646268;86;21102;-78
2024/01/04 05:24:53;;;;;;;50.08;22.07;;;;;;;1.06;100.00;98333.98;1646301;87;21126;-77
2024/01/04 05:27:21;;;;;;;52.78;22.67;;;;;;;1.07;100.00;98347.78;1646136;87;21078;-75
2024/01/04 05:29:50;;;;;;;45.15;21.55;;;;;;;1.09;100.00;98346.25;1646154;86;21109;-76
2024/01/04 05:32:18;;;;;;;52.25;21.77;;;;;;;1.09;100.00;98352.48;1646209;86;21098;-76
2024/01/04 05:34:46;;;;;;;48.50;21.65;;;;;;;1.08;100.00;98345.41;1646201;85;21073;-77
2024/01/04 05:37:15;;;;;;;52.95;23.00;;;;;;;1.09;100.00;98349.78;1657222;86;21078;-74
2024/01/04 05:39:43;;;;;;;51.23;22.02;;;;;;;1.10;100.00;98347.92;1657281;86;21488;-76
2024/01/04 05:42:12;;;;;;;57.58;23.07;;;;;;;1.11;100.00;98347.73;1657224;86;21079;-74
2024/01/04 05:44:41;;;;;;;53.95;21.07;;;;;;;1.12;100.00;98342.66;1657395;86;21107;-74
2024/01/04 05:47:09;;;;;;;56.02;21.93;;;;;;;1.14;100.00;98353.27;1657334;86;21026;-75
2024/01/04 05:49:38;;;;;;;47.33;20.62;;;;;;;1.14;100.00;98353.27;1657251;86;21455;-76
2024/01/04 05:52:06;;;;;;;49.85;21.82;;;;;;;1.15;100.00;98357.12;1656690;85;21063;-76
2024/01/04 05:54:35;;;;;;;49.67;20.45;;;;;;;1.16;100.00;98360.14;1645858;86;21110;-77
2024/01/04 05:57:04;;;;;;;50.17;21.12;;;;;;;1.17;100.00;98365.86;1657253;86;21083;-78
2024/01/04 05:59:32;;;;;;;57.70;22.82;;;;;;;1.20;100.00;98361.44;1657493;86;21070;-77
2024/01/04 06:02:01;;;;;;;53.80;23.45;;;;;;;1.23;100.00;98361.57;1657259;86;21150;-76
2024/01/04 06:04:29;;;;;;;52.15;22.13;;;;;;;1.26;100.00;98356.64;1657282;86;21074;-77
2024/01/04 06:06:58;;;;;;;55.60;22.48;;;;;;;1.29;100.00;98367.56;1634885;86;21039;-79
2024/01/04 06:09:26;;;;;;;54.25;25.48;;;;;;;1.31;100.00;98370.94;1657255;86;21490;-79
2024/01/04 06:11:55;;;;;;;55.30;21.90;;;;;;;1.29;100.00;98364.86;1657256;86;21062;-79
2024/01/04 06:14:23;;;;;;;54.23;22.00;;;;;;;1.28;100.00;98369.94;1657328;86;21042;-76
2024/01/04 06:16:52;;;;;;;54.60;22.70;;;;;;;1.27;100.00;98369.61;1657206;86;21015;-78
2024/01/04 06:19:20;;;;;;;53.85;22.30;;;;;;;1.25;100.00;98372.50;1657193;86;21039;-78
2024/01/04 06:21:49;;;;;;;57.17;22.67;;;;;;;1.23;100.00;98370.50;1657161;86;21135;-79
2024/01/04 06:24:18;;;;;;;52.53;21.62;;;;;;;1.25;100.00;98367.61;1657381;86;21189;-78
2024/01/04 06:26:47;;;;;;;55.03;20.90;;;;;;;1.27;100.00;98372.30;1657224;86;21086;-78
2024/01/04 06:29:16;;;;;;;49.05;21.80;;;;;;;1.27;100.00;98371.80;1657311;86;21099;-76
2024/01/04 06:31:44;;;;;;;56.33;23.35;;;;;;;1.28;100.00;98378.03;1657328;86;21098;-74
2024/01/04 06:34:13;;;;;;;56.33;22.80;;;;;;;1.30;100.00;98379.19;1657175;86;21046;-78
2024/01/04 06:36:41;;;;;;;62.55;23.42;;;;;;;1.33;100.00;98374.28;1652177;86;21521;-76
2024/01/04 06:39:10;;;;;;;59.05;24.32;;;;;;;1.35;100.00;98373.58;1657953;86;21058;-76
2024/01/04 06:41:43;;;;;;;60.38;24.12;;;;;;;1.38;100.00;98371.86;1649654;87;21527;-78
2024/01/04 06:44:10;;;;;;;53.13;24.00;;;;;;;1.39;100.00;98376.73;1657912;86;21066;-78
2024/01/04 06:46:38;;;;;;;57.03;23.25;;;;;;;1.42;100.00;98379.89;1649666;87;21075;-77
2024/01/04 06:49:06;;;;;;;56.88;24.18;;;;;;;1.43;100.00;98384.27;1658045;86;21071;-75
2024/01/04 06:51:35;;;;;;;54.50;23.12;;;;;;;1.45;100.00;98382.72;1649621;87;21179;-75
2024/01/04 06:54:04;;;;;;;50.52;20.85;;;;;;;1.45;100.00;98384.91;1657905;86;21090;-75
2024/01/04 06:56:32;;;;;;;56.48;23.98;;;;;;;1.45;100.00;98391.66;1623100;88;21071;-76
2024/01/04 06:59:01;;;;;;;62.53;24.80;;;;;;;1.45;100.00;98390.82;1657863;86;21783;-75
2024/01/04 07:01:30;;;;;;;69.40;27.90;;;;;;;1.45;100.00;98390.31;1623276;88;21122;-76
2024/01/04 07:03:58;;;;;;;54.95;22.37;;;;;;;1.47;100.00;98390.95;1677356;85;21055;-75
2024/01/04 07:06:29;;;;;;;68.17;27.62;;;;;;;1.48;100.00;98396.67;1693289;84;21115;-74
2024/01/04 07:08:57;;;;;;;59.18;23.87;;;;;;;1.47;100.00;98395.00;1685384;85;21090;-75
2024/01/04 07:11:30;;;;;;;54.48;20.68;;;;;;;1.48;100.00;98400.72;1693375;84;21042;-73
2024/01/04 07:13:59;;;;;;;45.15;19.23;;;;;;;1.49;100.00;98405.09;1693211;84;21179;-73
2024/01/04 07:16:27;;;;;;;51.50;18.55;;;;;;;1.49;100.00;98397.00;1693206;84;21505;-73
2024/01/04 07:18:56;;;;;;;46.45;17.67;;;;;;;1.49;100.00;98399.70;1693255;85;21039;-73
2024/01/04 07:21:25;;;;;;;45.15;17.65;;;;;;;1.49;100.00;98403.74;1677659;85;21051;-73
2024/01/04 07:23:53;;;;;;;46.48;18.80;;;;;;;1.51;100.00;98413.00;1693179;84;21063;-72
2024/01/04 07:26:22;;;;;;;49.63;18.00;;;;;;;1.49;100.00;98411.84;1677458;85;21118;-73
2024/01/04 07:28:50;;;;;;;44.20;17.30;;;;;;;1.47;100.00;98408.49;1677540;85;21050;-68
2024/01/04 07:31:20;;;;;;;51.73;19.90;;;;;;;1.46;100.00;98406.82;1693294;84;21102;-70
2024/01/04 07:33:49;;;;;;;45.33;18.25;;;;;;;1.45;100.00;98403.80;1693237;84;21094;-70
2024/01/04 07:36:17;;;;;;;49.55;19.10;;;;;;;1.47;100.00;98411.70;1695609;83;21563;-68
2024/01/04 07:38:46;;;;;;;48.15;19.23;;;;;;;1.49;100.00;98410.48;1699857;83;21059;-70
2024/01/04 07:41:14;;;;;;;50.05;19.77;;;;;;;1.49;100.00;98404.26;1699659;84;21462;-70
2024/01/04 07:43:44;;;;;;;48.28;19.00;;;;;;;1.49;100.00;98406.95;1699847;84;21431;-74
2024/01/04 07:46:13;;;;;;;49.75;20.40;;;;;;;1.51;100.00;98405.73;1699762;84;21544;-72
2024/01/04 07:48:41;;;;;;;53.50;21.45;;;;;;;1.49;100.00;98410.48;1699674;84;21047;-72
2024/01/04 07:51:10;;;;;;;63.65;23.38;;;;;;;1.47;100.00;98409.84;1689834;84;21042;-73
2024/01/04 07:53:40;;;;;;;60.98;24.15;;;;;;;1.46;100.00;98411.38;1699637;83;21042;-71
2024/01/04 07:56:08;;;;;;;54.40;22.98;;;;;;;1.48;100.00;98411.52;1699734;84;21065;-69
2024/01/04 07:58:37;;;;;;;65.62;25.80;;;;;;;1.50;100.00;98408.63;1699825;84;21089;-68
2024/01/04 08:01:06;;;;;;;64.82;25.37;;;;;;;1.52;100.00;98410.11;1703613;84;21023;-72
2024/01/04 08:03:35;;;;;;;69.65;27.22;;;;;;;1.52;100.00;98407.41;1699651;83;21062;-71
2024/01/04 08:06:05;;;;;;;66.77;26.45;;;;;;;1.54;100.00;98413.97;1703477;83;21435;-73
2024/01/04 08:08:34;;;;;;;68.42;27.15;;;;;;;1.54;100.00;98408.06;1703691;83;21034;-71
2024/01/04 08:11:03;;;;;;;65.97;27.05;;;;;;;1.56;100.00;98416.80;1699821;84;21034;-71
2024/01/04 08:13:32;;;;;;;67.62;26.68;;;;;;;1.57;100.00;98414.95;1699651;83;21106;-71
2024/01/04 08:16:02;;;;;;;72.40;27.87;;;;;;;1.57;100.00;98417.64;1699574;83;21019;-72
2024/01/04 08:18:31;;;;;;;74.25;27.93;;;;;;;1.58;100.00;98412.56;1703436;84;21002;-73
2024/01/04 08:21:02;;;;;;;67.15;26.70;;;;;;;1.62;100.00;98417.08;1690032;84;21074;-73
2024/01/04 08:23:31;;;;;;;72.25;28.80;;;;;;;1.62;100.00;98418.42;1699713;83;21070;-74
2024/01/04 08:26:05;;;;;;;69.37;28.27;;;;;;;1.61;100.00;98419.45;1680413;84;21038;-75
2024/01/04 08:28:33;;;;;;;75.12;29.02;;;;;;;1.62;100.00;98415.72;1703409;83;21534;-74
2024/01/04 08:31:04;;;;;;;74.27;28.67;;;;;;;1.64;100.00;98417.72;1699566;83;21066;-74
2024/01/04 08:33:33;;;;;;;76.47;30.40;;;;;;;1.66;100.00;98410.27;1699819;83;21074;-76
2024/01/04 08:36:02;;;;;;;75.55;29.57;;;;;;;1.67;100.00;98418.69;1700139;82;21980;-77
2024/01/04 08:38:31;;;;;;;77.27;28.73;;;;;;;1.65;100.00;98416.18;1670926;85;21051;-78
2024/01/04 08:41:00;;;;;;;80.87;31.52;;;;;;;1.66;100.00;98419.72;1704893;84;21041;-75
2024/01/04 08:43:29;;;;;;;87.05;33.30;;;;;;;1.66;100.00;98415.67;1670696;85;21046;-74
2024/01/04 08:45:57;;;;;;;78.87;30.88;;;;;;;1.67;100.00;98409.24;1663232;85;21179;-74
2024/01/04 08:48:26;;;;;;;79.35;31.82;;;;;;;1.69;100.00;98415.28;1698557;84;21133;-75
2024/01/04 08:50:55;;;;;;;97.65;43.45;;;;;;;1.71;100.00;98415.94;1670790;85;21537;-74
2024/01/04 08:53:24;;;;;;;88.50;32.28;;;;;;;1.68;100.00;98416.31;1670726;85;21086;-74
2024/01/04 08:55:52;;;;;;;82.17;31.52;;;;;;;1.70;100.00;98415.61;1704481;84;21051;-73
2024/01/04 08:58:21;;;;;;;86.35;31.95;;;;;;;1.69;100.00;98413.42;1685628;82;21077;-75
2024/01/04 09:00:52;;;;;;;85.35;31.77;;;;;;;1.69;100.00;98412.59;1715190;82;21462;-76
2024/01/04 09:03:23;;;;;;;84.62;31.20;;;;;;;1.71;100.00;98421.33;1643257;86;21491;-76
2024/01/04 09:05:53;;;;;;;95.45;33.45;;;;;;;1.82;100.00;98414.09;1670695;86;21043;-76
2024/01/04 09:08:22;;;;;;;104.90;40.03;;;;;;;1.91;100.00;98408.89;1720012;82;21034;-75
2024/01/04 09:10:51;;;;;;;126.35;47.93;;;;;;;1.95;100.00;98420.15;1737041;82;21686;-75
2024/01/04 09:13:19;;;;;;;173.78;62.27;;;;;;;1.93;100.00;98412.23;1737191;82;21045;-75
2024/01/04 09:15:48;;;;;;;184.65;61.80;;;;;;;1.92;100.00;98411.91;1737030;82;21629;-75
2024/01/04 09:18:17;;;;;;;189.45;62.73;;;;;;;1.89;100.00;98412.30;1707137;82;21093;-76
2024/01/04 09:20:47;;;;;;;183.72;62.70;;;;;;;1.88;100.00;98414.67;1670680;86;21525;-76
2024/01/04 09:23:15;;;;;;;199.20;65.80;;;;;;;1.86;100.00;98416.22;1704419;84;21543;-74
2024/01/04 09:25:45;;;;;;;216.00;69.25;;;;;;;1.86;100.00;98411.33;1704414;84;21062;-76
2024/01/04 09:28:13;;;;;;;224.37;72.53;;;;;;;1.85;100.00;98411.01;1704625;84;21105;-78
2024/01/04 09:30:42;;;;;;;215.82;72.67;;;;;;;1.81;100.00;98418.66;1704548;84;21510;-78
2024/01/04 09:33:12;;;;;;;219.43;71.77;;;;;;;1.78;100.00;98421.73;1687431;83;21066;-78
2024/01/04 09:35:41;;;;;;;219.03;70.97;;;;;;;1.77;100.00;98417.88;1729115;83;21093;-77
2024/01/04 09:38:10;;;;;;;226.58;74.53;;;;;;;1.78;100.00;98416.84;1729693;81;21026;-78
2024/01/04 09:40:40;;;;;;;217.77;75.95;;;;;;;1.83;100.00;98415.77;1729789;83;21046;-81
2024/01/04 09:43:09;;;;;;;228.18;75.47;;;;;;;1.81;100.00;98409.20;1729923;83;21325;-85
2024/01/04 09:45:38;;;;;;;220.15;75.08;;;;;;;1.82;100.00;98416.79;1729954;83;20994;-80
2024/01/04 09:48:07;;;;;;;226.37;77.20;;;;;;;1.78;100.00;98414.98;1705252;83;21058;-80
2024/01/04 09:50:39;;;;;;;229.40;76.05;;;;;;;1.77;100.00;98410.61;1729570;83;21078;-80
2024/01/04 09:53:08;;;;;;;229.43;79.85;;;;;;;1.76;100.00;98419.73;1729791;83;21014;-80
2024/01/04 09:55:36;;;;;;;256.23;85.10;;;;;;;1.75;100.00;98414.53;1730200;83;20991;-81
2024/01/04 09:58:09;;;;;;;246.97;80.38;;;;;;;1.76;100.00;98422.44;1729778;83;21022;-82
2024/01/04 10:00:35;;;;;;;250.90;84.50;;;;;;;1.75;100.00;98409.13;1729666;83;21069;-83
2024/01/04 10:03:04;;;;;;;250.32;82.42;;;;;;;1.78;100.00;98408.75;1729819;83;21494;-83
2024/01/04 10:05:34;;;;;;;250.68;82.82;;;;;;;1.78;100.00;98409.59;1705280;83;21038;-84
2024/01/04 10:08:12;;;;;;;260.38;85.20;;;;;;;1.82;100.00;98401.94;1721318;83;21010;-82
2024/01/04 10:10:41;;;;;;;262.93;88.87;;;;;;;1.86;100.00;98404.06;1670817;86;21095;-84
2024/01/04 10:13:10;;;;;;;264.77;89.62;;;;;;;1.88;100.00;98399.83;1704617;84;21073;-84
2024/01/04 10:15:42;;;;;;;284.92;96.17;;;;;;;1.91;100.00;98400.80;1686983;84;21796;-84
2024/01/04 10:18:12;;;;;;;295.88;103.60;;;;;;;1.94;100.00;98393.66;1687111;84;21050;-85
2024/01/04 10:20:41;;;;;;;294.07;100.75;;;;;;;1.96;100.00;98391.63;1704188;82;21050;-82
2024/01/04 10:23:12;;;;;;;290.10;99.17;;;;;;;2.00;100.00;98398.32;1670615;86;21040;-83
2024/01/04 10:25:41;;;;;;;294.18;99.00;;;;;;;2.03;100.00;98400.64;1705422;82;21086;-83
2024/01/04 10:28:10;;;;;;;278.80;96.92;;;;;;;2.03;100.00;98399.80;1670595;84;21502;-86
2024/01/04 10:30:42;;;;;;;310.68;102.22;;;;;;;2.03;100.00;98396.59;1710416;83;21034;-85
2024/01/04 10:33:11;;;;;;;313.02;105.55;;;;;;;2.05;100.00;98393.70;1670894;86;21055;-78
2024/01/04 10:35:44;;;;;;;320.60;106.58;;;;;;;2.09;100.00;98390.41;1705068;82;21563;-82
2024/01/04 10:38:22;;;;;;;294.02;104.72;;;;;;;2.15;100.00;98392.34;1717941;83;21118;-84
2024/01/04 10:41:04;;;;;;;313.23;104.50;;;;;;;2.19;100.00;98393.63;1721669;82;21482;-84
2024/01/04 10:43:33;;;;;;;312.45;106.72;;;;;;;2.19;100.00;98388.22;1721734;83;20998;-86
2024/01/04 10:46:10;;;;;;;308.85;105.67;;;;;;;2.19;100.00;98385.52;1721710;83;21078;-83
2024/01/04 10:48:39;;;;;;;317.93;110.97;;;;;;;2.22;100.00;98378.38;1721926;83;21256;-85
2024/01/04 10:51:09;;;;;;;300.25;109.03;;;;;;;2.28;100.00;98380.82;1722211;83;21042;-85
2024/01/04 10:53:38;;;;;;;343.75;115.52;;;;;;;2.32;100.00;98388.02;1722075;83;21149;-86
2024/01/04 10:56:07;;;;;;;325.43;107.87;;;;;;;2.36;100.00;98392.00;1721858;82;20999;-85
2024/01/04 10:58:36;;;;;;;330.50;115.55;;;;;;;2.39;100.00;98388.92;1721737;83;21351;-85
2024/01/04 11:01:05;;;;;;;329.10;116.82;;;;;;;2.39;100.00;98392.45;1721539;83;21054;-81
2024/01/04 11:03:34;;;;;;;365.15;126.27;;;;;;;2.39;100.00;98386.21;1718884;82;21038;-84
2024/01/04 11:06:04;;;;;;;369.25;127.95;;;;;;;2.39;100.00;98391.10;1695813;83;21050;-87
2024/01/04 11:08:33;;;;;;;342.15;120.67;;;;;;;2.40;100.00;98387.37;1714871;82;21009;-85
2024/01/04 11:11:02;;;;;;;317.77;106.47;;;;;;;2.40;100.00;98379.27;1709080;84;21011;-84
2024/01/04 11:13:31;;;;;;;343.48;118.80;;;;;;;2.42;100.00;98387.17;1709044;84;21116;-85
2024/01/04 11:16:00;;;;;;;342.00;111.95;;;;;;;2.45;100.00;98380.86;1708973;84;21463;-87
2024/01/04 11:18:53;;;;;;;330.77;113.95;;;;;;;2.45;100.00;98375.45;1708985;84;21043;-86
2024/01/04 11:21:43;;;;;;;335.77;113.70;;;;;;;2.44;100.00;98369.73;1708973;84;21020;-84